createdAt,value
2022-10-02T00:00:37.715Z,100092.31
2022-10-02T00:01:58.374Z,100101.72
2022-10-02T00:03:10.936Z,100090.16
2022-10-02T00:04:36.519Z,100097.63
2022-10-02T00:05:46.467Z,100102.75
2022-10-02T00:06:51.278Z,100099.22
2022-10-02T00:08:12.533Z,100111.00
2022-10-02T00:09:49.365Z,100108.56
2022-10-02T00:10:57.551Z,100111.44
2022-10-02T00:12:01.329Z,100116.50
2022-10-02T00:13:13.152Z,100108.34
2022-10-02T00:14:23.506Z,100114.22
2022-10-02T00:15:29.838Z,100108.22
2022-10-02T00:16:42.546Z,100114.75
2022-10-02T00:17:48.093Z,100119.63
2022-10-02T00:18:53.648Z,100115.28
2022-10-02T00:19:56.824Z,100120.25
2022-10-02T00:21:02.154Z,100126.56
2022-10-02T00:22:37.544Z,100121.19
2022-10-02T00:23:56.699Z,100116.94
2022-10-02T00:25:21.120Z,100123.06
2022-10-02T00:26:41.115Z,100120.56
2022-10-02T00:27:56.003Z,100117.31
2022-10-02T00:29:05.188Z,100113.38
2022-10-02T00:30:11.856Z,100112.84
2022-10-02T00:31:24.560Z,100121.66
2022-10-02T00:32:45.389Z,100113.34
2022-10-02T00:34:22.086Z,100111.78
2022-10-02T00:35:48.574Z,100113.16
2022-10-02T00:37:10.762Z,100122.78
2022-10-02T00:38:22.229Z,100114.63
2022-10-02T00:39:32.873Z,100118.75
2022-10-02T00:41:08.663Z,100130.09
2022-10-02T00:42:45.171Z,100130.97
2022-10-02T00:44:06.213Z,100138.16
2022-10-02T00:45:30.699Z,100145.44
2022-10-02T00:46:38.907Z,100142.38
2022-10-02T00:47:59.531Z,100151.59
2022-10-02T00:49:19.561Z,100150.53
2022-10-02T00:50:47.168Z,100154.09
2022-10-02T00:52:30.479Z,100156.75
2022-10-02T00:54:04.349Z,100153.19
2022-10-02T00:55:31.137Z,100163.63
2022-10-02T00:56:36.953Z,100161.59
2022-10-02T00:57:53.365Z,100160.59
2022-10-02T00:59:14.531Z,100170.59
2022-10-02T01:00:19.533Z,100175.00
2022-10-02T01:01:41.735Z,100172.84
2022-10-02T01:02:58.937Z,100170.56
2022-10-02T01:04:09.379Z,100168.16
2022-10-02T01:05:12.517Z,100170.03
2022-10-02T01:06:15.121Z,100160.50
2022-10-02T01:07:17.747Z,100170.88
2022-10-02T01:08:21.766Z,100165.50
2022-10-02T01:09:25.744Z,100170.78
2022-10-02T01:10:30.898Z,100165.72
2022-10-02T01:11:35.824Z,100163.38
2022-10-02T01:12:44.236Z,100156.72
2022-10-02T01:13:52.761Z,100162.28
2022-10-02T01:14:55.431Z,100161.31
2022-10-02T01:16:00.987Z,100165.59
2022-10-02T01:17:21.723Z,100152.84
2022-10-02T01:18:49.534Z,100158.72
2022-10-02T01:19:53.458Z,100161.63
2022-10-02T01:21:05.420Z,100171.50
2022-10-02T01:22:25.403Z,100169.28
2022-10-02T01:23:38.446Z,100167.50
2022-10-02T01:24:51.211Z,100176.03
2022-10-02T01:25:54.118Z,100174.38
2022-10-02T01:26:56.752Z,100177.28
2022-10-02T01:27:59.755Z,100179.34
2022-10-02T01:29:09.584Z,100167.94
2022-10-02T01:30:18.625Z,100183.69
2022-10-02T01:31:22.844Z,100182.41
2022-10-02T01:32:26.997Z,100184.22
2022-10-02T01:33:32.173Z,100189.50
2022-10-02T01:34:35.216Z,100184.44
2022-10-02T01:35:39.710Z,100190.75
2022-10-02T01:36:42.767Z,100193.97
2022-10-02T01:37:45.735Z,100190.97
2022-10-02T01:38:50.481Z,100199.59
2022-10-02T01:39:53.374Z,100203.22
2022-10-02T01:40:56.045Z,100199.47
2022-10-02T01:42:03.174Z,100201.94
2022-10-02T01:43:10.078Z,100201.84
2022-10-02T01:44:14.076Z,100199.63
2022-10-02T01:45:16.821Z,100208.13
2022-10-02T01:46:41.741Z,100209.38
2022-10-02T01:47:52.020Z,100209.50
2022-10-02T01:49:11.577Z,100210.06
2022-10-02T01:50:19.548Z,100211.53
2022-10-02T01:51:33.966Z,100217.03
2022-10-02T01:53:02.771Z,100226.28
2022-10-02T01:54:25.224Z,100227.50
2022-10-02T01:55:41.912Z,100225.28
2022-10-02T01:56:44.603Z,100221.00
2022-10-02T01:58:09.482Z,100226.94
2022-10-02T01:59:12.033Z,100226.09
2022-10-02T02:00:20.389Z,100230.72
2022-10-02T02:01:26.389Z,100230.78
2022-10-02T02:02:50.738Z,100225.75
2022-10-02T02:04:13.839Z,100218.06
2022-10-02T02:05:25.188Z,100222.91
2022-10-02T02:06:40.317Z,100221.72
2022-10-02T02:08:31.359Z,100232.16
2022-10-02T02:09:45.721Z,100233.88
2022-10-02T02:10:52.468Z,100231.16
2022-10-02T02:12:31.650Z,100235.09
2022-10-02T02:14:01.933Z,100236.88
2022-10-02T02:15:19.124Z,100228.19
2022-10-02T02:16:32.054Z,100244.25
2022-10-02T02:17:51.317Z,100239.09
2022-10-02T02:19:14.836Z,100240.63
2022-10-02T02:20:33.337Z,100246.75
2022-10-02T02:21:44.489Z,100247.44
2022-10-02T02:22:52.697Z,100251.91
2022-10-02T02:23:59.053Z,100255.84
2022-10-02T02:25:10.377Z,100262.53
2022-10-02T02:26:17.168Z,100266.97
2022-10-02T02:27:25.688Z,100262.09
2022-10-02T02:28:31.566Z,100256.63
2022-10-02T02:29:37.103Z,100250.44
2022-10-02T02:30:44.378Z,100256.41
2022-10-02T02:31:52.643Z,100257.16
2022-10-02T02:33:01.979Z,100256.41
2022-10-02T02:34:11.501Z,100262.75
2022-10-02T02:35:27.493Z,100266.97
2022-10-02T02:36:39.249Z,100264.19
2022-10-02T02:37:44.625Z,100270.97
2022-10-02T02:38:52.882Z,100262.94
2022-10-02T02:40:01.846Z,100268.88
2022-10-02T02:41:09.601Z,100258.22
2022-10-02T02:42:17.775Z,100267.47
2022-10-02T02:43:29.751Z,100262.50
2022-10-02T02:44:44.764Z,100272.13
2022-10-02T02:46:14.506Z,100278.88
2022-10-02T02:47:22.819Z,100284.47
2022-10-02T02:48:30.458Z,100272.81
2022-10-02T02:49:57.256Z,100277.47
2022-10-02T02:51:08.808Z,100272.50
2022-10-02T02:52:17.603Z,100279.88
2022-10-02T02:53:41.644Z,100277.66
2022-10-02T02:54:49.659Z,100284.69
2022-10-02T02:55:59.278Z,100282.47
2022-10-02T02:57:05.274Z,100285.13
2022-10-02T02:58:17.337Z,100291.59
2022-10-02T02:59:22.437Z,100291.16
2022-10-02T03:00:26.524Z,100289.84
2022-10-02T03:01:29.252Z,100305.88
2022-10-02T03:02:32.126Z,100298.06
2022-10-02T03:03:34.705Z,100307.31
2022-10-02T03:04:37.500Z,100297.97
2022-10-02T03:05:45.402Z,100296.66
2022-10-02T03:06:55.277Z,100306.53
2022-10-02T03:08:05.842Z,100298.28
2022-10-02T03:09:13.877Z,100304.38
2022-10-02T03:10:38.351Z,100295.69
2022-10-02T03:12:09.324Z,100299.41
2022-10-02T03:13:30.820Z,100308.63
2022-10-02T03:14:43.220Z,100309.56
2022-10-02T03:16:03.945Z,100310.94
2022-10-02T03:17:39.748Z,100317.66
2022-10-02T03:18:42.405Z,100317.53
2022-10-02T03:19:50.637Z,100317.84
2022-10-02T03:21:05.328Z,100321.47
2022-10-02T03:22:41.470Z,100328.16
2022-10-02T03:23:53.228Z,100325.97
2022-10-02T03:25:14.034Z,100331.81
2022-10-02T03:26:35.252Z,100329.31
2022-10-02T03:27:45.753Z,100327.56
2022-10-02T03:28:57.598Z,100331.81
2022-10-02T03:30:02.384Z,100334.75
2022-10-02T03:31:05.504Z,100335.56
2022-10-02T03:32:09.551Z,100335.91
2022-10-02T03:33:14.480Z,100346.59
2022-10-02T03:34:17.682Z,100341.13
2022-10-02T03:35:23.074Z,100348.53
2022-10-02T03:36:26.449Z,100349.16
2022-10-02T03:37:29.968Z,100353.13
2022-10-02T03:38:34.177Z,100347.22
2022-10-02T03:39:44.461Z,100350.50
2022-10-02T03:40:46.891Z,100346.34
2022-10-02T03:41:49.545Z,100353.59
2022-10-02T03:42:54.110Z,100351.47
2022-10-02T03:43:56.656Z,100348.25
2022-10-02T03:45:01.467Z,100349.78
2022-10-02T03:46:04.102Z,100351.72
2022-10-02T03:47:06.697Z,100361.72
2022-10-02T03:48:09.810Z,100360.47
2022-10-02T03:49:12.407Z,100362.31
2022-10-02T03:50:17.827Z,100365.09
2022-10-02T03:51:21.324Z,100359.56
2022-10-02T03:52:24.579Z,100370.72
2022-10-02T03:53:36.506Z,100366.50
2022-10-02T03:54:39.013Z,100372.06
2022-10-02T03:55:46.897Z,100356.97
2022-10-02T03:56:58.079Z,100360.75
2022-10-02T03:58:10.806Z,100354.38
2022-10-02T03:59:17.866Z,100360.38
2022-10-02T04:00:27.719Z,100364.22
2022-10-02T04:01:37.962Z,100368.09
2022-10-02T04:02:48.742Z,100372.75
2022-10-02T04:03:57.915Z,100365.22
2022-10-02T04:05:23.904Z,100375.22
2022-10-02T04:06:46.230Z,100370.31
2022-10-02T04:07:52.998Z,100374.81
2022-10-02T04:09:11.945Z,100376.53
2022-10-02T04:10:20.817Z,100379.50
2022-10-02T04:11:32.175Z,100383.06
2022-10-02T04:12:42.136Z,100382.94
2022-10-02T04:14:02.890Z,100384.25
2022-10-02T04:15:15.194Z,100385.50
2022-10-02T04:16:40.308Z,100376.72
2022-10-02T04:18:10.900Z,100390.22
2022-10-02T04:19:25.372Z,100379.50
2022-10-02T04:20:42.055Z,100380.91
2022-10-02T04:21:47.487Z,100389.69
2022-10-02T04:22:57.760Z,100390.34
2022-10-02T04:24:10.182Z,100396.09
2022-10-02T04:25:29.387Z,100397.22
2022-10-02T04:26:37.465Z,100390.09
2022-10-02T04:27:45.435Z,100393.94
2022-10-02T04:28:54.971Z,100392.34
2022-10-02T04:30:01.708Z,100385.91
2022-10-02T04:31:11.748Z,100392.72
2022-10-02T04:32:15.704Z,100394.44
2022-10-02T04:33:20.072Z,100393.81
2022-10-02T04:34:25.218Z,100395.06
2022-10-02T04:35:46.247Z,100398.84
2022-10-02T04:37:06.589Z,100401.81
2022-10-02T04:38:21.170Z,100400.44
2022-10-02T04:40:07.215Z,100410.66
2022-10-02T04:41:21.725Z,100407.22
2022-10-02T04:42:41.344Z,100422.88
2022-10-02T04:43:52.982Z,100423.66
2022-10-02T04:44:55.405Z,100427.69
2022-10-02T04:46:06.939Z,100422.09
2022-10-02T04:47:33.591Z,100420.75
2022-10-02T04:48:54.575Z,100420.13
2022-10-02T04:50:30.643Z,100422.78
2022-10-02T04:52:01.720Z,100428.38
2022-10-02T04:53:30.785Z,100431.91
2022-10-02T04:54:54.747Z,100432.25
2022-10-02T04:56:12.901Z,100440.88
2022-10-02T04:57:39.919Z,100436.72
2022-10-02T04:59:04.005Z,100441.97
2022-10-02T05:00:25.502Z,100443.81
2022-10-02T05:01:41.623Z,100442.13
2022-10-02T05:03:05.326Z,100437.81
2022-10-02T05:04:26.594Z,100445.38
2022-10-02T05:06:05.811Z,100440.38
2022-10-02T05:07:55.409Z,100446.84
2022-10-02T05:09:29.346Z,100437.06
2022-10-02T05:11:09.294Z,100440.16
2022-10-02T05:12:38.004Z,100441.59
2022-10-02T05:14:02.240Z,100436.13
2022-10-02T05:15:16.508Z,100447.59
2022-10-02T05:16:37.972Z,100444.59
2022-10-02T05:18:08.703Z,100440.53
2022-10-02T05:19:57.714Z,100441.09
2022-10-02T05:21:26.518Z,100449.84
2022-10-02T05:22:46.456Z,100448.09
2022-10-02T05:24:20.002Z,100442.53
2022-10-02T05:25:38.364Z,100433.56
2022-10-02T05:26:47.142Z,100445.09
2022-10-02T05:28:04.713Z,100441.50
2022-10-02T05:29:21.413Z,100440.47
2022-10-02T05:30:24.984Z,100434.31
2022-10-02T05:31:55.865Z,100434.63
2022-10-02T05:33:32.937Z,100427.88
2022-10-02T05:34:47.596Z,100427.97
2022-10-02T05:36:02.273Z,100422.25
2022-10-02T05:37:35.986Z,100422.59
2022-10-02T05:39:07.456Z,100436.81
2022-10-02T05:40:15.640Z,100429.91
2022-10-02T05:41:35.997Z,100430.25
2022-10-02T05:42:48.796Z,100420.75
2022-10-02T05:44:06.340Z,100426.28
2022-10-02T05:45:35.025Z,100429.53
2022-10-02T05:46:44.992Z,100429.53
2022-10-02T05:47:49.909Z,100432.84
2022-10-02T05:49:17.974Z,100435.22
2022-10-02T05:50:29.967Z,100441.28
2022-10-02T05:51:38.108Z,100440.22
2022-10-02T05:52:46.719Z,100444.53
2022-10-02T05:54:05.019Z,100444.75
2022-10-02T05:55:26.134Z,100438.00
2022-10-02T05:56:43.427Z,100446.56
2022-10-02T05:58:26.462Z,100450.31
2022-10-02T05:59:47.157Z,100452.63
2022-10-02T06:01:03.508Z,100445.28
2022-10-02T06:02:12.637Z,100450.09
2022-10-02T06:03:39.666Z,100449.16
2022-10-02T06:04:49.553Z,100455.59
2022-10-02T06:05:59.002Z,100448.53
2022-10-02T06:07:18.222Z,100449.94
2022-10-02T06:08:31.785Z,100453.69
2022-10-02T06:09:40.298Z,100450.19
2022-10-02T06:10:48.618Z,100455.78
2022-10-02T06:12:00.118Z,100464.06
2022-10-02T06:13:10.835Z,100455.44
2022-10-02T06:14:31.115Z,100458.56
2022-10-02T06:15:38.305Z,100462.75
2022-10-02T06:16:48.298Z,100461.88
2022-10-02T06:17:56.932Z,100464.22
2022-10-02T06:19:08.252Z,100466.06
2022-10-02T06:20:37.949Z,100469.63
2022-10-02T06:21:50.027Z,100455.91
2022-10-02T06:23:06.363Z,100464.53
2022-10-02T06:24:17.273Z,100457.63
2022-10-02T06:25:49.683Z,100460.28
2022-10-02T06:27:38.455Z,100455.97
2022-10-02T06:28:48.118Z,100459.53
2022-10-02T06:30:04.336Z,100465.47
2022-10-02T06:31:06.745Z,100466.84
2022-10-02T06:32:33.955Z,100470.16
2022-10-02T06:33:36.570Z,100464.81
2022-10-02T06:34:38.962Z,100469.97
2022-10-02T06:35:53.654Z,100469.06
2022-10-02T06:37:12.026Z,100476.94
2022-10-02T06:38:32.839Z,100473.91
2022-10-02T06:40:17.174Z,100466.38
2022-10-02T06:41:56.939Z,100482.94
2022-10-02T06:43:27.830Z,100474.84
2022-10-02T06:44:37.885Z,100470.41
2022-10-02T06:46:20.169Z,100476.41
2022-10-02T06:48:18.119Z,100469.78
2022-10-02T06:50:21.547Z,100484.47
2022-10-02T06:51:32.920Z,100485.28
2022-10-02T06:53:21.547Z,100488.16
2022-10-02T06:54:50.000Z,100490.03
2022-10-02T06:55:52.616Z,100485.34
2022-10-02T06:57:29.061Z,100491.63
2022-10-02T06:58:43.709Z,100492.63
2022-10-02T07:00:20.266Z,100490.75
2022-10-02T07:03:06.998Z,100495.13
2022-10-02T07:04:46.271Z,100498.88
2022-10-02T07:06:08.187Z,100495.19
2022-10-02T07:07:46.223Z,100491.63
2022-10-02T07:09:40.627Z,100489.44
2022-10-02T07:11:24.375Z,100487.19
2022-10-02T07:12:33.375Z,100495.66
2022-10-02T07:13:44.747Z,100501.09
2022-10-02T07:15:03.374Z,100494.09
2022-10-02T07:16:31.062Z,100496.56
2022-10-02T07:18:02.211Z,100488.50
2022-10-02T07:21:44.908Z,100493.41
2022-10-02T07:23:22.960Z,100483.72
2022-10-02T07:29:17.656Z,100494.41
2022-10-02T07:30:22.668Z,100502.28
2022-10-02T07:31:52.283Z,100510.56
2022-10-02T07:33:16.352Z,100497.28
2022-10-02T07:34:34.578Z,100503.25
2022-10-02T07:35:53.506Z,100505.59
2022-10-02T07:37:04.351Z,100507.59
2022-10-02T07:38:43.505Z,100514.72
2022-10-02T07:40:04.696Z,100510.16
2022-10-02T07:41:54.175Z,100508.16
2022-10-02T07:43:54.516Z,100511.03
2022-10-02T07:45:07.193Z,100515.66
2022-10-02T07:46:35.424Z,100516.44
2022-10-02T07:48:13.059Z,100518.41
2022-10-02T07:49:45.464Z,100509.53
2022-10-02T07:51:40.459Z,100513.50
2022-10-02T07:53:10.092Z,100511.94
2022-10-02T07:54:22.275Z,100527.66
2022-10-02T07:55:27.612Z,100517.69
2022-10-02T07:56:30.982Z,100519.75
2022-10-02T07:57:52.626Z,100521.13
2022-10-02T07:59:04.528Z,100523.88
2022-10-02T08:00:16.254Z,100526.06
2022-10-02T08:01:34.654Z,100537.31
2022-10-02T08:03:19.484Z,100542.69
2022-10-02T08:04:41.318Z,100544.50
2022-10-02T08:05:49.906Z,100539.28
2022-10-02T08:07:00.977Z,100535.19
2022-10-02T08:08:50.809Z,100535.78
2022-10-02T08:09:54.979Z,100532.94
2022-10-02T08:11:12.603Z,100533.22
2022-10-02T08:12:39.113Z,100533.19
2022-10-02T08:13:55.714Z,100537.56
2022-10-02T08:15:03.337Z,100539.78
2022-10-02T08:16:08.936Z,100535.09
2022-10-02T08:17:44.634Z,100538.88
2022-10-02T08:18:59.872Z,100536.88
2022-10-02T08:20:46.208Z,100549.13
2022-10-02T08:22:40.748Z,100535.97
2022-10-02T08:24:18.058Z,100538.47
2022-10-02T08:25:21.512Z,100543.34
2022-10-02T08:27:06.088Z,100543.25
2022-10-02T08:28:44.354Z,100539.03
2022-10-02T08:30:02.548Z,100537.31
2022-10-02T08:31:16.363Z,100542.75
2022-10-02T08:32:19.395Z,100545.47
2022-10-02T08:33:23.380Z,100539.44
2022-10-02T08:34:30.069Z,100541.28
2022-10-02T08:35:48.516Z,100542.72
2022-10-02T08:37:19.295Z,100545.88
2022-10-02T08:38:41.393Z,100546.75
2022-10-02T08:40:11.483Z,100542.66
2022-10-02T08:41:47.015Z,100541.53
2022-10-02T08:43:29.075Z,100550.38
2022-10-02T08:44:49.805Z,100552.59
2022-10-02T08:46:04.378Z,100557.22
2022-10-02T08:47:33.421Z,100550.00
2022-10-02T08:49:03.027Z,100542.97
2022-10-02T08:50:50.809Z,100545.50
2022-10-02T08:52:14.951Z,100547.13
2022-10-02T08:53:52.610Z,100557.03
2022-10-02T08:55:13.004Z,100543.69
2022-10-02T08:56:43.642Z,100550.53
2022-10-02T08:59:35.455Z,100560.03
2022-10-02T09:01:09.104Z,100559.28
2022-10-02T09:04:05.529Z,100563.06
2022-10-02T09:06:03.815Z,100566.88
2022-10-02T09:07:38.556Z,100571.75
2022-10-02T09:09:07.527Z,100573.63
2022-10-02T09:11:13.241Z,100580.50
2022-10-02T09:12:46.378Z,100581.94
2022-10-02T09:14:16.502Z,100578.09
2022-10-02T09:15:38.999Z,100576.56
2022-10-02T09:17:02.788Z,100572.63
2022-10-02T09:18:29.576Z,100572.63
2022-10-02T09:20:03.267Z,100575.94
2022-10-02T09:21:27.449Z,100575.84
2022-10-02T09:22:55.690Z,100569.91
2022-10-02T09:24:46.850Z,100571.03
2022-10-02T09:26:03.340Z,100561.56
2022-10-02T09:27:24.697Z,100565.50
2022-10-02T09:28:42.173Z,100557.78
2022-10-02T09:30:12.397Z,100551.47
2022-10-02T09:31:32.885Z,100554.94
2022-10-02T09:33:15.176Z,100553.13
2022-10-02T09:35:09.364Z,100551.28
2022-10-02T09:36:19.170Z,100551.25
2022-10-02T09:37:46.204Z,100554.28
2022-10-02T09:39:13.034Z,100551.94
2022-10-02T09:40:31.646Z,100549.19
2022-10-02T09:41:44.508Z,100547.31
2022-10-02T09:43:44.124Z,100541.03
2022-10-02T09:45:19.282Z,100546.28
2022-10-02T09:46:40.296Z,100536.53
2022-10-02T09:48:08.870Z,100540.38
2022-10-02T09:49:43.899Z,100536.00
2022-10-02T09:51:14.167Z,100533.59
2022-10-02T09:52:19.409Z,100540.44
2022-10-02T09:53:56.210Z,100540.44
2022-10-02T09:55:13.444Z,100536.06
2022-10-02T09:56:40.225Z,100542.50
2022-10-02T09:58:05.727Z,100543.13
2022-10-02T09:59:40.828Z,100545.53
2022-10-02T10:00:54.298Z,100539.34
2022-10-02T10:02:30.328Z,100545.34
2022-10-02T10:04:08.747Z,100548.97
2022-10-02T10:05:34.303Z,100546.06
2022-10-02T10:06:55.970Z,100545.69
2022-10-02T10:08:28.670Z,100536.19
2022-10-02T10:09:51.497Z,100537.94
2022-10-02T10:11:02.789Z,100534.13
2022-10-02T10:12:13.659Z,100535.72
2022-10-02T10:13:47.265Z,100536.06
2022-10-02T10:15:13.908Z,100535.28
2022-10-02T10:17:10.687Z,100528.28
2022-10-02T10:18:23.982Z,100531.84
2022-10-02T10:19:53.769Z,100530.19
2022-10-02T10:21:30.075Z,100529.19
2022-10-02T10:22:49.628Z,100527.81
2022-10-02T10:24:07.075Z,100532.09
2022-10-02T10:25:38.751Z,100536.69
2022-10-02T10:27:09.017Z,100534.47
2022-10-02T10:28:20.300Z,100534.84
2022-10-02T10:29:25.449Z,100534.47
2022-10-02T10:30:36.503Z,100532.16
2022-10-02T10:32:03.569Z,100531.81
2022-10-02T10:33:45.483Z,100527.94
2022-10-02T10:35:20.950Z,100526.84
2022-10-02T10:37:09.873Z,100533.78
2022-10-02T10:38:58.396Z,100523.03
2022-10-02T10:40:19.543Z,100530.75
2022-10-02T10:41:37.369Z,100521.34
2022-10-02T10:43:16.943Z,100523.09
2022-10-02T10:44:48.145Z,100518.19
2022-10-02T10:46:19.295Z,100512.94
2022-10-02T10:47:43.968Z,100515.06
2022-10-02T10:49:09.866Z,100516.25
2022-10-02T10:50:36.020Z,100508.75
2022-10-02T10:51:51.500Z,100515.38
2022-10-02T10:52:55.168Z,100507.56
2022-10-02T10:54:22.876Z,100507.38
2022-10-02T10:56:22.127Z,100505.38
2022-10-02T10:57:42.541Z,100494.06
2022-10-02T10:58:56.816Z,100504.66
2022-10-02T11:00:39.096Z,100500.06
2022-10-02T11:02:03.477Z,100499.38
2022-10-02T11:03:36.767Z,100496.59
2022-10-02T11:05:16.044Z,100498.38
2022-10-02T11:06:46.097Z,100503.22
2022-10-02T11:07:52.341Z,100507.97
2022-10-02T11:09:17.644Z,100500.00
2022-10-02T11:10:29.552Z,100495.84
2022-10-02T11:11:41.014Z,100486.38
2022-10-02T11:13:25.526Z,100491.28
2022-10-02T11:14:49.661Z,100480.19
2022-10-02T11:16:16.785Z,100485.09
2022-10-02T11:17:25.044Z,100479.59
2022-10-02T11:18:34.919Z,100482.09
2022-10-02T11:20:02.640Z,100478.34
2022-10-02T11:21:11.351Z,100481.72
2022-10-02T11:22:19.669Z,100490.84
2022-10-02T11:24:23.644Z,100489.94
2022-10-02T11:25:38.888Z,100489.06
2022-10-02T11:27:00.531Z,100483.00
2022-10-02T11:28:22.611Z,100479.22
2022-10-02T11:29:47.609Z,100486.41
2022-10-02T11:31:00.734Z,100478.63
2022-10-02T11:32:28.234Z,100478.25
2022-10-02T11:33:30.574Z,100475.22
2022-10-02T11:34:54.968Z,100470.94
2022-10-02T11:36:05.638Z,100484.75
2022-10-02T11:37:18.104Z,100485.97
2022-10-02T11:38:33.237Z,100489.81
2022-10-02T11:40:05.602Z,100488.53
2022-10-02T11:41:34.566Z,100484.28
2022-10-02T11:42:56.887Z,100483.84
2022-10-02T11:44:13.727Z,100478.53
2022-10-02T11:45:50.849Z,100487.69
2022-10-02T11:47:19.872Z,100495.69
2022-10-02T11:48:48.039Z,100490.91
2022-10-02T11:50:35.807Z,100482.13
2022-10-02T11:51:51.623Z,100484.84
2022-10-02T11:53:53.137Z,100481.34
2022-10-02T11:55:03.645Z,100472.19
2022-10-02T11:56:35.865Z,100472.63
2022-10-02T11:58:26.000Z,100474.63
2022-10-02T12:00:06.889Z,100468.47
2022-10-02T12:01:23.804Z,100473.88
2022-10-02T12:02:47.359Z,100477.50
2022-10-02T12:04:11.226Z,100473.81
2022-10-02T12:05:29.806Z,100461.34
2022-10-02T12:06:56.572Z,100462.16
2022-10-02T12:08:38.242Z,100463.16
2022-10-02T12:10:21.983Z,100454.19
2022-10-02T12:11:42.301Z,100451.38
2022-10-02T12:12:53.640Z,100454.88
2022-10-02T12:14:18.101Z,100439.59
2022-10-02T12:15:34.401Z,100448.97
2022-10-02T12:16:45.940Z,100445.88
2022-10-02T12:18:22.043Z,100441.09
2022-10-02T12:19:32.444Z,100438.91
2022-10-02T12:21:18.444Z,100427.38
2022-10-02T12:22:55.148Z,100436.69
2022-10-02T12:24:44.540Z,100437.53
2022-10-02T12:26:11.036Z,100426.69
2022-10-02T12:27:43.028Z,100427.22
2022-10-02T12:29:07.326Z,100435.28
2022-10-02T12:30:53.800Z,100430.06
2022-10-02T12:32:08.579Z,100424.22
2022-10-02T12:33:35.089Z,100430.06
2022-10-02T12:34:40.294Z,100431.19
2022-10-02T12:36:11.859Z,100427.25
2022-10-02T12:37:17.733Z,100429.38
2022-10-02T12:38:50.045Z,100426.00
2022-10-02T12:40:09.445Z,100423.72
2022-10-02T12:41:49.551Z,100425.41
2022-10-02T12:43:20.159Z,100426.88
2022-10-02T12:44:32.906Z,100430.72
2022-10-02T12:45:57.786Z,100427.19
2022-10-02T12:47:29.421Z,100415.78
2022-10-02T12:48:54.204Z,100427.91
2022-10-02T12:50:12.004Z,100437.53
2022-10-02T12:51:49.667Z,100429.09
2022-10-02T12:53:04.630Z,100422.28
2022-10-02T12:54:10.080Z,100428.47
2022-10-02T12:55:18.203Z,100430.78
2022-10-02T12:56:42.689Z,100421.38
2022-10-02T12:57:59.016Z,100424.00
2022-10-02T12:59:01.814Z,100435.19
2022-10-02T13:00:15.234Z,100420.06
2022-10-02T13:01:55.344Z,100418.34
2022-10-02T13:03:16.520Z,100415.31
2022-10-02T13:04:40.469Z,100412.44
2022-10-02T13:06:02.079Z,100407.28
2022-10-02T13:07:33.990Z,100410.50
2022-10-02T13:08:48.818Z,100408.22
2022-10-02T13:10:15.937Z,100407.31
2022-10-02T13:11:37.946Z,100409.66
2022-10-02T13:12:52.388Z,100404.94
2022-10-02T13:14:33.338Z,100405.06
2022-10-02T13:15:49.457Z,100411.59
2022-10-02T13:16:58.913Z,100413.31
2022-10-02T13:18:34.034Z,100422.66
2022-10-02T13:19:50.942Z,100415.56
2022-10-02T13:21:24.056Z,100416.66
2022-10-02T13:23:21.876Z,100413.66
2022-10-02T13:24:36.105Z,100412.69
2022-10-02T13:25:44.503Z,100416.16
2022-10-02T13:27:00.176Z,100416.03
2022-10-02T13:28:23.960Z,100409.31
2022-10-02T13:29:40.789Z,100408.84
2022-10-02T13:31:14.800Z,100412.06
2022-10-02T13:32:17.137Z,100409.06
2022-10-02T13:33:56.835Z,100418.72
2022-10-02T13:35:28.110Z,100408.66
2022-10-02T13:36:50.676Z,100410.22
2022-10-02T13:38:06.980Z,100408.19
2022-10-02T13:39:35.686Z,100406.19
2022-10-02T13:40:48.546Z,100411.50
2022-10-02T13:42:05.799Z,100406.84
2022-10-02T13:43:46.898Z,100417.13
2022-10-02T13:45:08.615Z,100405.94
2022-10-02T13:46:26.224Z,100418.00
2022-10-02T13:47:37.754Z,100415.25
2022-10-02T13:48:58.358Z,100410.88
2022-10-02T13:50:31.767Z,100407.78
2022-10-02T13:52:13.625Z,100405.91
2022-10-02T13:53:30.849Z,100414.44
2022-10-02T13:54:48.475Z,100414.50
2022-10-02T13:56:04.287Z,100411.81
2022-10-02T13:57:51.410Z,100407.84
2022-10-02T13:59:05.524Z,100412.06
2022-10-02T14:00:44.485Z,100405.25
2022-10-02T14:01:55.311Z,100403.81
2022-10-02T14:03:18.903Z,100405.41
2022-10-02T14:05:02.520Z,100405.41
2022-10-02T14:06:20.727Z,100406.94
2022-10-02T14:07:49.217Z,100401.75
2022-10-02T14:09:11.992Z,100396.25
2022-10-02T14:10:48.901Z,100404.97
2022-10-02T14:12:00.313Z,100408.63
2022-10-02T14:13:33.347Z,100402.84
2022-10-02T14:15:03.604Z,100410.84
2022-10-02T14:16:36.626Z,100412.72
2022-10-02T14:18:01.175Z,100415.03
2022-10-02T14:19:23.701Z,100401.88
2022-10-02T14:20:52.437Z,100400.28
2022-10-02T14:22:03.613Z,100404.91
2022-10-02T14:23:08.688Z,100397.22
2022-10-02T14:25:00.196Z,100405.16
2022-10-02T14:26:25.174Z,100405.13
2022-10-02T14:27:49.438Z,100402.84
2022-10-02T14:29:27.186Z,100404.88
2022-10-02T14:30:49.675Z,100401.25
2022-10-02T14:32:16.837Z,100389.34
2022-10-02T14:33:33.099Z,100389.44
2022-10-02T14:34:38.387Z,100390.63
2022-10-02T14:35:47.903Z,100399.50
2022-10-02T14:37:11.526Z,100397.19
2022-10-02T14:38:23.078Z,100400.25
2022-10-02T14:39:37.733Z,100394.88
2022-10-02T14:40:56.286Z,100391.09
2022-10-02T14:42:21.776Z,100397.91
2022-10-02T14:43:50.323Z,100398.28
2022-10-02T14:45:12.983Z,100395.31
2022-10-02T14:46:22.151Z,100398.72
2022-10-02T14:47:30.508Z,100393.78
2022-10-02T14:49:09.578Z,100396.88
2022-10-02T14:50:40.093Z,100385.84
2022-10-02T14:52:06.099Z,100391.19
2022-10-02T14:53:33.853Z,100383.19
2022-10-02T14:55:10.053Z,100396.56
2022-10-02T14:56:25.086Z,100388.50
2022-10-02T14:57:55.122Z,100377.06
2022-10-02T14:59:21.685Z,100380.50
2022-10-02T15:00:25.837Z,100391.22
2022-10-02T15:01:30.909Z,100383.16
2022-10-02T15:03:11.665Z,100386.63
2022-10-02T15:04:29.467Z,100392.72
2022-10-02T15:05:40.837Z,100388.94
2022-10-02T15:07:07.249Z,100386.63
2022-10-02T15:08:25.140Z,100373.59
2022-10-02T15:09:48.258Z,100365.22
2022-10-02T15:10:52.106Z,100375.16
2022-10-02T15:12:06.529Z,100372.47
2022-10-02T15:13:28.660Z,100370.22
2022-10-02T15:14:39.587Z,100383.19
2022-10-02T15:16:22.097Z,100372.56
2022-10-02T15:17:56.965Z,100369.09
2022-10-02T15:19:15.560Z,100375.63
2022-10-02T15:21:00.891Z,100373.31
2022-10-02T15:22:32.323Z,100377.13
2022-10-02T15:23:42.873Z,100377.16
2022-10-02T15:25:06.782Z,100368.34
2022-10-02T15:26:30.905Z,100369.16
2022-10-02T15:27:46.388Z,100363.03
2022-10-02T15:29:06.643Z,100361.50